Time;durP1;ratioP1;P1;durP2;ratioP2;P2;SDS_P1;SDS_P2;PMS_P1;PMS_P2;Temp;Humidity;BMP_temperature;BMP_pressure;BME280_temperature;BME280_humidity;BME280_pressure;Samples;Min_cycle;Max_cycle;Signal;HPM_P1;HPM_P2
2022/01/17 00:02:01;;;;;;;19.38;2.58;;;;;;;;;;6204647;23;20177;-93
2022/01/17 00:04:28;;;;;;;13.15;2.70;;;;;;;;;;6204162;23;20048;-94
2022/01/17 00:06:55;;;;;;;22.33;2.38;;;;;;;;;;6203460;23;20025;-94
2022/01/17 00:09:36;;;;;;;13.20;2.15;;;;;;;;;;6204332;22;20009;-93
2022/01/17 00:12:03;;;;;;;19.85;1.63;;;;;;;;;;6203240;23;20012;-93
2022/01/17 00:14:35;;;;;;;26.85;2.53;;;;;;;;;;6203077;23;20033;-94
2022/01/17 00:19:52;;;;;;;25.50;3.05;;;;;;;;;;6203681;23;20081;-93
2022/01/17 00:22:22;;;;;;;25.63;3.25;;;;;;;;;;6203265;23;20028;-93
2022/01/17 00:24:54;;;;;;;21.52;2.30;;;;;;;;;;6203090;23;20059;-93
2022/01/17 00:27:20;;;;;;;26.55;3.67;;;;;;;;;;6199963;23;20013;-92
2022/01/17 00:29:48;;;;;;;18.95;2.63;;;;;;;;;;6203420;23;20048;-92
2022/01/17 00:32:15;;;;;;;21.08;3.03;;;;;;;;;;6203429;23;20024;-92
2022/01/17 00:34:42;;;;;;;19.33;2.88;;;;;;;;;;6204325;23;20013;-93
2022/01/17 00:37:09;;;;;;;23.75;2.85;;;;;;;;;;6205653;23;20017;-91
2022/01/17 00:39:39;;;;;;;22.67;2.95;;;;;;;;;;6205646;23;20250;-92
2022/01/17 00:42:07;;;;;;;36.03;3.83;;;;;;;;;;6205570;23;20066;-92
2022/01/17 00:45:06;;;;;;;27.80;3.67;;;;;;;;;;6231363;23;20017;-92
2022/01/17 00:47:36;;;;;;;23.80;2.92;;;;;;;;;;6206332;23;20051;-92
2022/01/17 00:50:03;;;;;;;28.00;4.38;;;;;;;;;;6204325;23;20081;-93
2022/01/17 00:52:29;;;;;;;21.58;2.53;;;;;;;;;;6206719;23;20024;-92
2022/01/17 00:54:56;;;;;;;32.95;3.40;;;;;;;;;;6208915;23;20391;-92
2022/01/17 00:57:27;;;;;;;23.90;3.20;;;;;;;;;;6207276;23;20038;-92
2022/01/17 00:59:54;;;;;;;28.48;3.47;;;;;;;;;;6207091;23;20113;-92
2022/01/17 01:02:21;;;;;;;32.33;4.50;;;;;;;;;;6205898;23;20013;-92
2022/01/17 01:04:49;;;;;;;22.50;3.10;;;;;;;;;;6206132;23;20035;-92
2022/01/17 01:07:22;;;;;;;27.80;3.65;;;;;;;;;;6206219;23;20025;-93
2022/01/17 01:10:00;;;;;;;30.58;3.65;;;;;;;;;;6206358;23;20078;-92
2022/01/17 01:12:27;;;;;;;30.63;3.58;;;;;;;;;;6207153;23;20070;-91
2022/01/17 01:14:57;;;;;;;22.23;3.25;;;;;;;;;;6207175;23;20032;-92
2022/01/17 01:17:33;;;;;;;18.55;2.85;;;;;;;;;;6206475;23;20061;-93
2022/01/17 01:20:14;;;;;;;28.90;3.70;;;;;;;;;;6206699;23;20444;-93
2022/01/17 01:28:52;;;;;;;25.98;2.85;;;;;;;;;;6233799;22;20036;-92
2022/01/17 01:31:28;;;;;;;36.92;3.65;;;;;;;;;;6208093;23;20039;-93
2022/01/17 01:34:32;;;;;;;25.10;3.33;;;;;;;;;;6234178;22;20118;-92
2022/01/17 01:36:59;;;;;;;21.50;2.95;;;;;;;;;;6208738;23;20077;-92
2022/01/17 01:39:25;;;;;;;27.70;3.22;;;;;;;;;;6208053;23;20078;-92
2022/01/17 01:41:52;;;;;;;23.55;3.08;;;;;;;;;;6206558;23;20024;-92
2022/01/17 01:44:20;;;;;;;26.30;3.03;;;;;;;;;;6207963;23;20090;-93
2022/01/17 01:46:48;;;;;;;31.73;3.25;;;;;;;;;;6207745;22;20023;-92
2022/01/17 01:49:16;;;;;;;25.30;2.88;;;;;;;;;;6207389;22;20024;-93
2022/01/17 01:51:44;;;;;;;32.13;3.42;;;;;;;;;;6206468;23;20025;-92
2022/01/17 01:54:11;;;;;;;31.52;3.17;;;;;;;;;;6206556;23;20029;-92
2022/01/17 01:56:39;;;;;;;21.27;3.13;;;;;;;;;;6208401;23;20035;-92
2022/01/17 01:59:06;;;;;;;27.77;3.28;;;;;;;;;;6206718;23;20360;-92
2022/01/17 02:01:33;;;;;;;22.02;2.28;;;;;;;;;;6206258;23;20025;-92
2022/01/17 02:04:01;;;;;;;29.58;3.15;;;;;;;;;;6206074;22;20060;-92
2022/01/17 02:06:27;;;;;;;26.67;2.78;;;;;;;;;;6205619;23;20025;-92
2022/01/17 02:08:57;;;;;;;33.13;2.90;;;;;;;;;;6204828;23;20032;-91
2022/01/17 02:11:25;;;;;;;17.42;3.10;;;;;;;;;;6206876;22;20024;-92
2022/01/17 02:14:04;;;;;;;20.30;2.60;;;;;;;;;;6207329;23;20024;-92
2022/01/17 02:16:31;;;;;;;20.92;3.38;;;;;;;;;;6206328;23;20036;-92
2022/01/17 02:18:58;;;;;;;25.80;3.28;;;;;;;;;;6204484;23;20278;-92
2022/01/17 02:21:34;;;;;;;17.88;2.83;;;;;;;;;;6204584;23;20025;-93
2022/01/17 02:24:01;;;;;;;19.92;2.78;;;;;;;;;;6207665;23;20036;-92
2022/01/17 02:26:28;;;;;;;19.65;3.65;;;;;;;;;;6207844;23;20025;-92
2022/01/17 02:28:56;;;;;;;32.90;4.10;;;;;;;;;;6208501;23;20032;-92
2022/01/17 02:31:24;;;;;;;18.00;2.88;;;;;;;;;;6208515;23;20024;-92
2022/01/17 02:33:51;;;;;;;31.20;4.20;;;;;;;;;;6210665;22;20046;-92
2022/01/17 02:36:18;;;;;;;25.65;3.58;;;;;;;;;;6211724;22;20013;-92
2022/01/17 02:38:50;;;;;;;23.00;2.75;;;;;;;;;;6207810;23;20054;-92
2022/01/17 02:41:18;;;;;;;27.92;4.13;;;;;;;;;;6203781;23;20358;-94
2022/01/17 02:43:46;;;;;;;17.58;2.72;;;;;;;;;;6203416;23;20429;-92
2022/01/17 02:48:50;;;;;;;20.40;2.92;;;;;;;;;;6229887;22;20032;-93
2022/01/17 02:51:17;;;;;;;19.40;3.13;;;;;;;;;;6201223;23;20028;-92
2022/01/17 02:53:46;;;;;;;22.75;2.75;;;;;;;;;;6199963;23;20025;-92
2022/01/17 02:56:13;;;;;;;17.30;2.65;;;;;;;;;;6210443;23;20028;-92
2022/01/17 02:58:42;;;;;;;26.70;3.13;;;;;;;;;;6210271;23;20020;-91
2022/01/17 03:01:12;;;;;;;24.30;3.67;;;;;;;;;;6210368;23;20036;-92
2022/01/17 03:03:41;;;;;;;23.35;3.45;;;;;;;;;;6201581;23;20032;-92
2022/01/17 03:06:08;;;;;;;23.42;2.22;;;;;;;;;;6199670;23;20024;-92
2022/01/17 03:08:35;;;;;;;20.20;2.95;;;;;;;;;;6199326;23;20101;-93
2022/01/17 03:11:06;;;;;;;28.40;3.60;;;;;;;;;;6200911;23;20025;-92
2022/01/17 03:13:35;;;;;;;18.70;2.72;;;;;;;;;;6202992;23;20403;-92
2022/01/17 03:16:04;;;;;;;29.70;3.08;;;;;;;;;;6208070;23;20017;-92
2022/01/17 03:18:33;;;;;;;30.30;3.67;;;;;;;;;;6204557;22;20028;-92
2022/01/17 03:21:03;;;;;;;26.23;3.97;;;;;;;;;;6198799;23;20025;-93
2022/01/17 03:23:30;;;;;;;22.20;3.30;;;;;;;;;;6197514;23;20029;-92
2022/01/17 03:25:56;;;;;;;18.80;2.95;;;;;;;;;;6198815;23;20374;-93
2022/01/17 03:28:23;;;;;;;29.70;3.20;;;;;;;;;;6196705;23;20035;-93
2022/01/17 03:30:57;;;;;;;22.27;3.10;;;;;;;;;;6198444;23;20028;-92
2022/01/17 03:33:23;;;;;;;29.25;3.67;;;;;;;;;;6196401;22;20471;-92
2022/01/17 03:35:50;;;;;;;26.92;3.33;;;;;;;;;;6197474;23;20037;-92
2022/01/17 03:38:18;;;;;;;20.88;3.40;;;;;;;;;;6196170;23;20474;-92
2022/01/17 03:40:54;;;;;;;32.40;4.30;;;;;;;;;;6197235;23;20054;-93
2022/01/17 03:43:22;;;;;;;26.80;3.58;;;;;;;;;;6196574;23;20042;-92
2022/01/17 03:45:50;;;;;;;23.00;3.10;;;;;;;;;;6199163;22;20100;-92
2022/01/17 03:48:18;;;;;;;28.92;3.20;;;;;;;;;;6197954;23;20028;-92
2022/01/17 03:50:58;;;;;;;27.33;3.63;;;;;;;;;;6208612;23;20019;-93
2022/01/17 03:53:25;;;;;;;26.10;3.42;;;;;;;;;;6200527;23;20066;-92
2022/01/17 03:55:53;;;;;;;19.88;2.60;;;;;;;;;;6196176;23;20036;-92
2022/01/17 03:58:21;;;;;;;22.05;2.92;;;;;;;;;;6195924;23;20024;-92
2022/01/17 04:00:49;;;;;;;22.15;3.53;;;;;;;;;;6196713;23;20025;-93
2022/01/17 04:03:16;;;;;;;24.92;2.75;;;;;;;;;;6198428;23;20295;-92
2022/01/17 04:05:43;;;;;;;23.98;3.10;;;;;;;;;;6197333;22;20032;-91
2022/01/17 04:08:09;;;;;;;25.10;3.03;;;;;;;;;;6198031;23;20025;-92
2022/01/17 04:10:36;;;;;;;22.73;2.63;;;;;;;;;;6199790;23;20025;-92
2022/01/17 04:13:04;;;;;;;21.48;3.00;;;;;;;;;;6199120;23;20048;-92
2022/01/17 04:15:32;;;;;;;25.85;2.58;;;;;;;;;;6199315;23;20394;-92
2022/01/17 04:17:59;;;;;;;22.98;3.03;;;;;;;;;;6200753;23;20076;-92
2022/01/17 04:20:30;;;;;;;20.27;2.88;;;;;;;;;;6199697;23;20082;-92
2022/01/17 04:22:58;;;;;;;27.05;2.83;;;;;;;;;;6225649;23;20036;-92
2022/01/17 04:25:26;;;;;;;29.90;4.65;;;;;;;;;;6227490;23;20070;-92
2022/01/17 04:27:53;;;;;;;26.58;3.00;;;;;;;;;;6202970;23;20029;-92
2022/01/17 04:30:23;;;;;;;24.33;4.03;;;;;;;;;;6203308;23;20029;-93
2022/01/17 04:32:51;;;;;;;29.40;3.63;;;;;;;;;;6202761;22;20041;-92
2022/01/17 04:35:20;;;;;;;23.45;3.00;;;;;;;;;;6209656;22;20028;-91
2022/01/17 04:37:48;;;;;;;30.05;3.08;;;;;;;;;;6210339;22;20013;-91
2022/01/17 04:40:16;;;;;;;20.50;2.72;;;;;;;;;;6210261;23;20016;-91
2022/01/17 04:42:45;;;;;;;18.40;3.05;;;;;;;;;;6200088;23;20028;-92
2022/01/17 04:45:15;;;;;;;32.47;3.38;;;;;;;;;;6197688;22;20241;-92
2022/01/17 04:47:43;;;;;;;20.17;2.40;;;;;;;;;;6200232;23;20353;-92
2022/01/17 04:50:15;;;;;;;26.17;3.63;;;;;;;;;;6200597;23;20032;-92
2022/01/17 04:52:42;;;;;;;19.30;2.35;;;;;;;;;;6200050;23;20024;-92
2022/01/17 04:55:10;;;;;;;21.33;2.80;;;;;;;;;;6200124;23;20035;-92
2022/01/17 04:57:41;;;;;;;25.25;2.65;;;;;;;;;;6199708;23;20036;-93
2022/01/17 05:00:09;;;;;;;19.67;2.97;;;;;;;;;;6200185;23;20030;-92
2022/01/17 05:02:35;;;;;;;24.42;2.50;;;;;;;;;;6208985;23;20036;-93
2022/01/17 05:05:04;;;;;;;18.75;2.65;;;;;;;;;;6209682;23;20017;-92
2022/01/17 05:07:32;;;;;;;20.63;3.15;;;;;;;;;;6203504;23;20028;-91
2022/01/17 05:10:03;;;;;;;18.08;3.03;;;;;;;;;;6201435;23;20036;-92
2022/01/17 05:12:31;;;;;;;24.95;3.33;;;;;;;;;;6202625;23;20020;-92
2022/01/17 05:14:58;;;;;;;24.88;4.10;;;;;;;;;;6203522;23;20036;-94
2022/01/17 05:19:58;;;;;;;18.92;3.05;;;;;;;;;;6237026;22;20013;-93
2022/01/17 05:22:31;;;;;;;27.55;3.05;;;;;;;;;;6210973;22;20074;-94
2022/01/17 05:24:59;;;;;;;23.58;3.67;;;;;;;;;;6210546;22;20024;-92
2022/01/17 05:27:25;;;;;;;24.63;3.50;;;;;;;;;;6209407;23;20105;-93
2022/01/17 05:29:52;;;;;;;23.63;3.20;;;;;;;;;;6205926;23;20043;-92
2022/01/17 05:32:20;;;;;;;32.92;3.40;;;;;;;;;;6200551;23;20029;-93
2022/01/17 05:34:48;;;;;;;21.52;2.95;;;;;;;;;;6203245;23;20072;-94
2022/01/17 05:37:24;;;;;;;26.10;4.18;;;;;;;;;;6202313;23;20024;-93
2022/01/17 05:39:50;;;;;;;18.20;3.28;;;;;;;;;;6204815;23;20421;-94
2022/01/17 05:42:18;;;;;;;17.40;3.08;;;;;;;;;;6203367;23;20025;-94
2022/01/17 05:44:47;;;;;;;23.95;3.58;;;;;;;;;;6207417;23;20016;-95
2022/01/17 05:47:15;;;;;;;35.95;5.00;;;;;;;;;;6209366;22;20028;-94
2022/01/17 05:49:41;;;;;;;20.60;2.63;;;;;;;;;;6205213;23;20406;-94
2022/01/17 05:52:08;;;;;;;14.88;2.90;;;;;;;;;;6198534;23;20024;-94
2022/01/17 05:54:35;;;;;;;24.67;3.75;;;;;;;;;;6202328;23;20024;-94
2022/01/17 05:57:02;;;;;;;32.75;4.22;;;;;;;;;;6198762;23;20089;-93
2022/01/17 05:59:29;;;;;;;27.00;3.38;;;;;;;;;;6199919;22;20025;-93
2022/01/17 06:01:59;;;;;;;23.10;3.70;;;;;;;;;;6201825;23;20025;-93
2022/01/17 06:04:28;;;;;;;17.17;2.53;;;;;;;;;;6202528;23;20027;-93
2022/01/17 06:06:55;;;;;;;24.02;3.45;;;;;;;;;;6205815;23;20131;-93
2022/01/17 06:09:27;;;;;;;22.15;3.55;;;;;;;;;;6201462;22;20044;-93
2022/01/17 06:12:01;;;;;;;27.90;3.08;;;;;;;;;;6200022;23;20024;-93
2022/01/17 06:17:05;;;;;;;30.85;3.70;;;;;;;;;;6234727;23;20009;-93
2022/01/17 06:19:32;;;;;;;28.50;3.17;;;;;;;;;;6208053;22;20051;-93
2022/01/17 06:21:58;;;;;;;20.33;3.80;;;;;;;;;;6206360;23;20034;-94
2022/01/17 06:24:26;;;;;;;17.13;2.92;;;;;;;;;;6207183;22;20017;-94
2022/01/17 06:26:53;;;;;;;18.25;2.88;;;;;;;;;;6207080;23;20033;-94
2022/01/17 06:29:19;;;;;;;27.73;3.13;;;;;;;;;;6201522;22;20023;-94
2022/01/17 06:31:46;;;;;;;30.70;3.60;;;;;;;;;;6205661;22;20080;-93
2022/01/17 06:34:13;;;;;;;18.33;2.38;;;;;;;;;;6205517;22;20028;-93
2022/01/17 06:36:43;;;;;;;23.45;3.05;;;;;;;;;;6204765;22;20025;-93
2022/01/17 06:39:10;;;;;;;29.55;3.38;;;;;;;;;;6202817;22;20043;-93
2022/01/17 06:41:41;;;;;;;18.83;3.20;;;;;;;;;;6199724;23;20032;-93
2022/01/17 06:44:07;;;;;;;33.65;3.58;;;;;;;;;;6199453;23;20024;-92
2022/01/17 06:46:34;;;;;;;18.10;2.97;;;;;;;;;;6197662;23;20024;-92
2022/01/17 06:49:06;;;;;;;18.02;2.72;;;;;;;;;;6195298;23;20121;-92
2022/01/17 06:51:33;;;;;;;20.25;2.80;;;;;;;;;;6195083;23;20036;-92
2022/01/17 06:54:02;;;;;;;24.08;3.25;;;;;;;;;;6195729;23;20044;-92
2022/01/17 06:56:29;;;;;;;25.38;4.15;;;;;;;;;;6191912;23;20044;-93
2022/01/17 06:58:56;;;;;;;51.85;5.55;;;;;;;;;;6195155;23;20036;-92
2022/01/17 07:01:27;;;;;;;28.23;3.55;;;;;;;;;;6197567;22;20080;-92
2022/01/17 07:03:54;;;;;;;23.13;2.90;;;;;;;;;;6194965;23;20085;-93
2022/01/17 07:06:24;;;;;;;68.43;5.22;;;;;;;;;;6196674;23;20033;-92
2022/01/17 07:08:54;;;;;;;19.27;3.28;;;;;;;;;;6199922;23;20048;-92
2022/01/17 07:11:27;;;;;;;23.80;3.38;;;;;;;;;;6198230;23;20519;-93
2022/01/17 07:13:55;;;;;;;35.60;5.13;;;;;;;;;;6199161;23;20072;-93
2022/01/17 07:16:34;;;;;;;23.60;3.13;;;;;;;;;;6203663;23;20028;-93
2022/01/17 07:19:02;;;;;;;21.35;3.72;;;;;;;;;;6199254;23;20075;-93
2022/01/17 07:21:30;;;;;;;25.30;3.63;;;;;;;;;;6212536;22;20032;-94
2022/01/17 07:24:03;;;;;;;30.17;4.50;;;;;;;;;;6212253;22;20013;-94
2022/01/17 07:26:31;;;;;;;35.78;4.10;;;;;;;;;;6211820;22;20032;-93
2022/01/17 07:28:58;;;;;;;23.92;4.07;;;;;;;;;;6212700;22;20008;-94
2022/01/17 07:39:24;;;;;;;26.60;3.83;;;;;;;;;;6207241;22;20034;-93
2022/01/17 07:41:51;;;;;;;29.30;3.75;;;;;;;;;;6201946;22;20025;-94
2022/01/17 07:44:19;;;;;;;21.60;3.53;;;;;;;;;;6210560;22;20028;-94
2022/01/17 07:46:49;;;;;;;28.58;4.95;;;;;;;;;;6211721;23;20013;-94
2022/01/17 07:49:19;;;;;;;31.30;4.00;;;;;;;;;;6211230;23;20061;-94
2022/01/17 07:59:03;;;;;;;18.67;3.65;;;;;;;;;;6237594;23;20055;-93
2022/01/17 08:01:40;;;;;;;28.77;4.03;;;;;;;;;;6236610;23;20068;-93
2022/01/17 08:04:11;;;;;;;33.97;4.88;;;;;;;;;;6212660;22;20213;-94
2022/01/17 08:10:20;;;;;;;30.85;4.60;;;;;;;;;;6238867;23;20001;-92
2022/01/17 08:12:48;;;;;;;37.25;4.32;;;;;;;;;;6212904;23;20035;-95
2022/01/17 08:15:33;;;;;;;38.72;4.70;;;;;;;;;;6237036;23;20068;-94
2022/01/17 08:18:20;;;;;;;24.88;4.57;;;;;;;;;;6238650;23;20009;-95
2022/01/17 08:21:03;;;;;;;27.13;4.10;;;;;;;;;;6215442;23;20020;-94
2022/01/17 08:24:06;;;;;;;30.67;5.10;;;;;;;;;;6214851;23;20033;-92
2022/01/17 08:26:51;;;;;;;28.05;5.13;;;;;;;;;;6217252;22;20015;-94
2022/01/17 08:29:34;;;;;;;35.30;4.93;;;;;;;;;;6214213;23;20016;-94
2022/01/17 08:43:02;;;;;;;34.25;4.30;;;;;;;;;;6201533;22;20005;-93
2022/01/17 08:45:31;;;;;;;40.40;5.00;;;;;;;;;;6235379;23;20056;-93
2022/01/17 08:48:18;;;;;;;45.08;5.38;;;;;;;;;;6236007;22;20020;-93
2022/01/17 08:50:50;;;;;;;42.53;4.35;;;;;;;;;;6234685;23;20017;-93
2022/01/17 08:53:20;;;;;;;42.38;4.50;;;;;;;;;;6233840;22;20050;-93
2022/01/17 08:55:57;;;;;;;33.30;4.70;;;;;;;;;;6234918;23;20022;-95
2022/01/17 08:58:38;;;;;;;40.10;5.82;;;;;;;;;;6234371;22;20025;-93
2022/01/17 09:01:10;;;;;;;52.92;5.95;;;;;;;;;;6234250;22;20024;-94
2022/01/17 09:03:53;;;;;;;52.75;5.40;;;;;;;;;;6233661;23;20080;-93
2022/01/17 09:06:44;;;;;;;47.70;5.95;;;;;;;;;;6229760;22;20090;-92
2022/01/17 09:09:16;;;;;;;43.50;5.72;;;;;;;;;;6230943;23;20044;-93
2022/01/17 09:11:45;;;;;;;41.85;5.50;;;;;;;;;;6229517;22;20205;-93
2022/01/17 09:14:28;;;;;;;40.30;6.45;;;;;;;;;;6233815;22;20051;-93
2022/01/17 09:48:01;;;;;;;58.15;6.15;;;;;;;;;;5175066;27;20668;-94
2022/01/17 09:50:57;;;;;;;56.67;7.65;;;;;;;;;;5154846;27;20032;-93
2022/01/17 09:53:39;;;;;;;54.10;6.38;;;;;;;;;;5154586;27;20011;-93
2022/01/17 09:56:23;;;;;;;54.33;5.82;;;;;;;;;;5144453;27;20059;-93
2022/01/17 09:59:08;;;;;;;43.83;6.72;;;;;;;;;;5156280;27;20086;-94
2022/01/17 10:01:50;;;;;;;60.17;6.03;;;;;;;;;;5154751;27;20110;-94
2022/01/17 10:08:17;;;;;;;52.13;5.78;;;;;;;;;;5133502;28;20070;-94
2022/01/17 10:11:04;;;;;;;50.72;6.78;;;;;;;;;;5117325;28;20054;-94
2022/01/17 10:13:45;;;;;;;55.83;7.10;;;;;;;;;;5117190;28;20028;-94
2022/01/17 10:16:32;;;;;;;51.05;8.07;;;;;;;;;;5117733;28;20063;-93
2022/01/17 10:19:14;;;;;;;48.50;6.50;;;;;;;;;;5116631;28;20081;-94
2022/01/17 10:21:57;;;;;;;55.17;6.10;;;;;;;;;;5118652;28;20028;-93
2022/01/17 10:28:41;;;;;;;40.38;6.00;;;;;;;;;;5073155;28;20076;-94
2022/01/17 10:37:32;;;;;;;46.17;5.90;;;;;;;;;;5072427;28;20071;-94
2022/01/17 10:40:15;;;;;;;50.40;7.63;;;;;;;;;;5056981;28;20029;-92
2022/01/17 10:43:01;;;;;;;45.97;7.07;;;;;;;;;;5082737;28;20093;-94
2022/01/17 10:45:46;;;;;;;43.05;6.22;;;;;;;;;;5111168;28;20039;-94
2022/01/17 10:51:59;;;;;;;48.70;5.80;;;;;;;;;;5113606;28;20111;-94
2022/01/17 10:54:48;;;;;;;62.80;7.82;;;;;;;;;;5118736;27;20031;-92
2022/01/17 10:58:02;;;;;;;49.35;6.80;;;;;;;;;;5149146;27;20027;-93
2022/01/17 11:00:44;;;;;;;58.83;6.85;;;;;;;;;;5140372;28;20023;-94
2022/01/17 11:03:30;;;;;;;52.47;6.35;;;;;;;;;;5120949;22;20040;-95
2022/01/17 11:06:13;;;;;;;74.00;11.02;;;;;;;;;;5103982;28;20025;-93
2022/01/17 11:09:12;;;;;;;62.13;10.95;;;;;;;;;;5119162;28;20012;-93
2022/01/17 11:11:59;;;;;;;66.07;9.07;;;;;;;;;;5119528;28;20046;-92
2022/01/17 11:14:51;;;;;;;45.67;8.90;;;;;;;;;;5120153;28;20028;-92
2022/01/17 11:17:37;;;;;;;64.95;9.57;;;;;;;;;;5119490;28;20022;-92
2022/01/17 11:20:22;;;;;;;44.97;6.22;;;;;;;;;;5118993;28;20073;-94
2022/01/17 11:30:57;;;;;;;31.27;5.30;;;;;;;;;;6081115;22;20016;-94
2022/01/17 11:33:40;;;;;;;36.70;4.18;;;;;;;;;;5031903;28;20033;-95
2022/01/17 11:36:24;;;;;;;35.80;5.35;;;;;;;;;;5106237;22;20050;-95
2022/01/17 11:39:15;;;;;;;45.72;6.53;;;;;;;;;;5003675;28;20030;-93
2022/01/17 12:42:18;;;;;;;27.90;3.60;;;;;;;;;;5052211;23;20043;-93
2022/01/17 12:45:09;;;;;;;23.92;3.03;;;;;;;;;;5006618;23;20051;-94
2022/01/17 12:48:03;;;;;;;25.80;4.15;;;;;;;;;;4980191;29;20035;-95
2022/01/17 12:50:45;;;;;;;25.63;4.40;;;;;;;;;;4965478;28;20019;-90
2022/01/17 12:53:26;;;;;;;25.58;3.38;;;;;;;;;;4964106;28;20027;-94
2022/01/17 12:56:07;;;;;;;16.40;3.10;;;;;;;;;;4976043;28;20038;-94
2022/01/17 12:59:02;;;;;;;21.90;3.72;;;;;;;;;;4978512;28;20033;-93
2022/01/17 13:01:48;;;;;;;25.92;2.90;;;;;;;;;;4979294;28;20074;-93
2022/01/17 13:04:51;;;;;;;18.77;4.10;;;;;;;;;;4978320;28;20074;-94
2022/01/17 13:07:32;;;;;;;28.48;3.60;;;;;;;;;;4978327;28;20042;-95
2022/01/17 13:10:41;;;;;;;26.52;4.95;;;;;;;;;;4978343;28;20027;-95
2022/01/17 13:13:22;;;;;;;27.80;4.60;;;;;;;;;;4978471;28;20025;-93
2022/01/17 13:29:59;;;;;;;22.05;3.78;;;;;;;;;;4978467;28;20137;-94
2022/01/17 13:32:45;;;;;;;28.75;4.75;;;;;;;;;;4976339;28;20039;-92
2022/01/17 13:35:47;;;;;;;29.80;4.47;;;;;;;;;;4974652;28;20043;-94
2022/01/17 13:38:29;;;;;;;29.85;4.35;;;;;;;;;;4979128;28;20043;-94
2022/01/17 13:41:29;;;;;;;28.75;3.78;;;;;;;;;;4979308;28;20027;-93
2022/01/17 13:51:16;;;;;;;26.13;4.55;;;;;;;;;;4978736;28;20050;-94
2022/01/17 13:53:57;;;;;;;27.35;4.05;;;;;;;;;;4977363;28;20233;-93
2022/01/17 13:56:36;;;;;;;26.10;3.28;;;;;;;;;;4977595;28;20043;-94
2022/01/17 13:59:10;;;;;;;27.63;3.20;;;;;;;;;;4977709;28;20046;-95
2022/01/17 14:01:37;;;;;;;29.23;3.60;;;;;;;;;;4975660;28;20039;-94
2022/01/17 14:04:19;;;;;;;21.85;4.63;;;;;;;;;;4976165;28;20058;-94
2022/01/17 14:06:58;;;;;;;25.50;4.68;;;;;;;;;;4975783;28;20039;-94
2022/01/17 14:09:39;;;;;;;34.05;4.68;;;;;;;;;;4953660;28;20325;-92
2022/01/17 14:15:50;;;;;;;25.30;3.83;;;;;;;;;;4955165;28;20051;-93
2022/01/17 14:18:17;;;;;;;27.42;3.28;;;;;;;;;;4953927;29;20285;-94
2022/01/17 14:20:55;;;;;;;24.45;4.57;;;;;;;;;;4955144;28;20040;-94
2022/01/17 14:23:35;;;;;;;22.02;3.83;;;;;;;;;;4953450;29;20054;-94
2022/01/17 14:26:23;;;;;;;27.83;3.92;;;;;;;;;;4953792;29;20058;-93
2022/01/17 14:28:50;;;;;;;27.70;4.65;;;;;;;;;;4954324;29;20047;-94
2022/01/17 14:31:17;;;;;;;23.80;3.95;;;;;;;;;;4953189;28;20059;-94
2022/01/17 14:33:49;;;;;;;36.40;7.03;;;;;;;;;;4956740;28;20132;-94
2022/01/17 14:36:30;;;;;;;24.02;4.00;;;;;;;;;;4962594;28;20047;-94
2022/01/17 14:39:05;;;;;;;35.22;3.90;;;;;;;;;;4977284;28;20054;-93
2022/01/17 14:52:47;;;;;;;28.83;5.10;;;;;;;;;;5282230;23;20043;-95
2022/01/17 15:01:26;;;;;;;42.92;5.85;;;;;;;;;;4981502;28;20040;-94
2022/01/17 15:04:09;;;;;;;54.25;5.90;;;;;;;;;;4980107;28;20023;-92
2022/01/17 15:06:50;;;;;;;34.55;4.85;;;;;;;;;;4981126;28;20043;-94
2022/01/17 15:09:43;;;;;;;36.13;5.80;;;;;;;;;;4981061;28;20031;-93
2022/01/17 15:12:24;;;;;;;40.13;6.35;;;;;;;;;;4979749;28;20078;-93
2022/01/17 15:15:14;;;;;;;40.20;5.55;;;;;;;;;;4981161;28;20030;-95
2022/01/17 15:17:57;;;;;;;40.38;6.63;;;;;;;;;;4981658;28;20044;-94
2022/01/17 15:20:58;;;;;;;38.35;5.60;;;;;;;;;;4980193;28;20031;-94
2022/01/17 15:23:40;;;;;;;34.42;5.13;;;;;;;;;;4980408;28;20282;-94
2022/01/17 15:26:24;;;;;;;46.45;6.10;;;;;;;;;;4979822;28;20283;-93
2022/01/17 15:29:12;;;;;;;34.53;5.57;;;;;;;;;;4979958;28;20066;-94
2022/01/17 15:45:18;;;;;;;40.92;6.15;;;;;;;;;;4979079;28;20110;-93
2022/01/17 15:51:39;;;;;;;34.17;6.05;;;;;;;;;;4979700;28;20049;-95
2022/01/17 15:54:09;;;;;;;35.33;5.30;;;;;;;;;;4977785;28;20061;-94
2022/01/17 15:56:36;;;;;;;49.85;5.35;;;;;;;;;;4977038;28;20042;-93
2022/01/17 15:59:41;;;;;;;42.42;6.50;;;;;;;;;;4979156;28;20066;-94
2022/01/17 16:02:13;;;;;;;39.28;6.00;;;;;;;;;;4979175;28;20035;-95
2022/01/17 16:08:22;;;;;;;36.75;6.78;;;;;;;;;;4979549;28;20078;-92
2022/01/17 16:11:03;;;;;;;45.47;6.00;;;;;;;;;;4978911;28;20035;-94
2022/01/17 16:13:44;;;;;;;35.40;6.43;;;;;;;;;;4978039;28;20051;-94
2022/01/17 16:16:13;;;;;;;48.33;6.80;;;;;;;;;;4978676;28;20323;-94
2022/01/17 16:21:18;;;;;;;42.77;7.90;;;;;;;;;;5214559;23;20085;-94
2022/01/17 16:23:47;;;;;;;38.88;8.82;;;;;;;;;;4977847;28;20054;-93
2022/01/17 16:26:16;;;;;;;49.40;6.75;;;;;;;;;;4978497;28;20053;-93
2022/01/17 16:29:05;;;;;;;46.97;7.80;;;;;;;;;;4979084;28;20054;-92
2022/01/17 16:31:33;;;;;;;54.00;7.20;;;;;;;;;;4979523;28;20039;-94
2022/01/17 16:41:58;;;;;;;54.63;7.70;;;;;;;;;;4998355;26;20047;-93
2022/01/17 16:44:41;;;;;;;35.55;6.13;;;;;;;;;;4999245;28;20042;-95
2022/01/17 16:50:57;;;;;;;54.60;7.20;;;;;;;;;;4998619;28;20050;-94
2022/01/17 16:53:24;;;;;;;33.88;5.72;;;;;;;;;;4997176;28;20043;-93
2022/01/17 16:55:53;;;;;;;58.05;6.45;;;;;;;;;;4996984;28;20066;-93
2022/01/17 17:02:23;;;;;;;44.10;5.90;;;;;;;;;;4998541;28;20046;-94
2022/01/17 17:04:53;;;;;;;41.35;7.25;;;;;;;;;;4997329;28;20039;-94
2022/01/17 17:10:00;;;;;;;45.60;7.40;;;;;;;;;;5196285;23;20064;-93
2022/01/17 17:12:44;;;;;;;38.25;7.07;;;;;;;;;;4957065;28;20099;-94
2022/01/17 17:15:19;;;;;;;39.55;6.45;;;;;;;;;;4958890;28;20053;-96
2022/01/17 17:24:53;;;;;;;61.00;7.20;;;;;;;;;;4940599;28;20030;-93
2022/01/17 17:27:29;;;;;;;49.00;7.68;;;;;;;;;;4940378;28;20044;-94
2022/01/17 17:30:14;;;;;;;43.92;7.75;;;;;;;;;;4937514;28;20087;-94
2022/01/17 17:32:42;;;;;;;49.20;6.80;;;;;;;;;;4937818;28;20054;-95
2022/01/17 17:35:41;;;;;;;48.08;6.10;;;;;;;;;;4942273;28;20055;-95
2022/01/17 17:38:11;;;;;;;43.83;6.22;;;;;;;;;;4943270;29;20072;-94
2022/01/17 17:40:41;;;;;;;53.70;6.88;;;;;;;;;;4937535;28;20070;-93
2022/01/17 17:43:35;;;;;;;49.63;6.57;;;;;;;;;;4935244;28;20064;-93
2022/01/17 17:46:17;;;;;;;50.35;6.45;;;;;;;;;;4946292;29;20052;-93
2022/01/17 17:48:48;;;;;;;48.63;6.15;;;;;;;;;;4934031;29;20100;-93
2022/01/17 17:51:22;;;;;;;50.55;7.20;;;;;;;;;;4935209;28;20052;-94
2022/01/17 17:53:52;;;;;;;55.03;9.20;;;;;;;;;;4936661;28;20032;-95
2022/01/17 17:56:30;;;;;;;52.35;7.57;;;;;;;;;;4936432;28;20051;-95
2022/01/17 18:02:39;;;;;;;51.33;7.38;;;;;;;;;;4935721;28;20047;-93
2022/01/17 18:05:08;;;;;;;47.50;6.60;;;;;;;;;;4944079;28;20071;-94
2022/01/17 18:07:41;;;;;;;58.72;9.02;;;;;;;;;;4955802;28;20225;-94
2022/01/17 18:10:52;;;;;;;61.88;7.50;;;;;;;;;;4950988;28;20177;-93
2022/01/17 18:13:29;;;;;;;44.00;6.40;;;;;;;;;;4939386;28;20044;-93
2022/01/17 18:16:10;;;;;;;42.10;7.45;;;;;;;;;;4940667;28;20048;-94
2022/01/17 18:18:39;;;;;;;47.03;8.18;;;;;;;;;;4940059;28;20040;-92
2022/01/17 18:21:08;;;;;;;45.58;6.93;;;;;;;;;;4942309;28;20040;-93
2022/01/17 18:23:46;;;;;;;49.38;7.68;;;;;;;;;;4943337;28;20036;-94
2022/01/17 18:26:26;;;;;;;51.42;6.95;;;;;;;;;;4943231;28;20055;-94
2022/01/17 18:28:55;;;;;;;54.55;6.93;;;;;;;;;;4943231;28;20040;-93
2022/01/17 18:31:27;;;;;;;57.33;6.53;;;;;;;;;;4928056;28;20104;-94
2022/01/17 18:33:55;;;;;;;45.25;8.05;;;;;;;;;;5055463;23;20039;-94
2022/01/17 18:36:30;;;;;;;40.88;6.25;;;;;;;;;;4981372;28;20055;-94
2022/01/17 18:39:02;;;;;;;51.60;6.82;;;;;;;;;;4981300;28;20055;-94
2022/01/17 18:41:49;;;;;;;49.58;6.88;;;;;;;;;;4979368;28;20035;-95
2022/01/17 18:44:40;;;;;;;41.72;5.70;;;;;;;;;;4979738;28;20031;-94
2022/01/17 18:47:21;;;;;;;38.85;6.53;;;;;;;;;;4980587;28;20015;-95
2022/01/17 18:50:03;;;;;;;39.40;5.90;;;;;;;;;;4981408;28;20024;-94
2022/01/17 18:52:51;;;;;;;45.10;5.68;;;;;;;;;;4980363;28;20055;-94
2022/01/17 18:55:32;;;;;;;49.90;6.15;;;;;;;;;;4980601;28;20039;-94
2022/01/17 18:58:14;;;;;;;46.03;7.38;;;;;;;;;;4981531;28;20071;-93
2022/01/17 19:04:17;;;;;;;41.80;5.70;;;;;;;;;;4982293;28;20050;-93
2022/01/17 19:06:58;;;;;;;29.98;5.38;;;;;;;;;;4981210;28;20041;-92
2022/01/17 19:09:51;;;;;;;40.92;6.05;;;;;;;;;;4982018;28;20070;-93
2022/01/17 19:12:30;;;;;;;27.08;6.15;;;;;;;;;;4981129;28;20070;-94
2022/01/17 19:14:59;;;;;;;38.60;5.30;;;;;;;;;;5531924;23;20074;-93
2022/01/17 19:18:02;;;;;;;45.75;5.68;;;;;;;;;;4980359;28;20039;-94
2022/01/17 19:39:26;;;;;;;40.97;5.45;;;;;;;;;;4980339;28;20035;-94
2022/01/17 19:41:56;;;;;;;37.50;6.32;;;;;;;;;;4981402;28;20058;-94
2022/01/17 19:48:33;;;;;;;36.33;5.55;;;;;;;;;;4982124;28;20051;-93
2022/01/17 19:51:01;;;;;;;39.72;6.72;;;;;;;;;;4981151;28;20115;-94
2022/01/17 19:53:31;;;;;;;33.20;5.20;;;;;;;;;;4981064;28;20050;-94
2022/01/17 19:56:02;;;;;;;38.83;5.43;;;;;;;;;;4980554;28;20035;-94
2022/01/17 20:02:02;;;;;;;44.42;6.35;;;;;;;;;;4980484;28;20034;-95